createdAt,value
2022-12-29T00:01:23.965Z,5.6
2022-12-29T00:04:14.749Z,5.6
2022-12-29T00:07:02.627Z,5.6
2022-12-29T00:09:50.883Z,5.6
2022-12-29T00:12:38.225Z,5.6
2022-12-29T00:15:57.230Z,5.6
2022-12-29T00:18:44.500Z,5.5
2022-12-29T00:21:32.311Z,5.5
2022-12-29T00:24:51.482Z,5.5
2022-12-29T00:28:10.647Z,5.5
2022-12-29T00:31:29.729Z,5.5
2022-12-29T00:34:48.647Z,5.5
2022-12-29T00:38:07.668Z,5.5
2022-12-29T00:41:29.929Z,5.5
2022-12-29T00:44:48.965Z,5.5
2022-12-29T00:47:36.312Z,5.6
2022-12-29T00:50:23.526Z,5.6
2022-12-29T00:53:10.788Z,5.6
2022-12-29T00:55:58.117Z,5.6
2022-12-29T00:58:45.454Z,5.6
2022-12-29T01:01:33.122Z,5.7
2022-12-29T01:04:21.347Z,5.7
2022-12-29T01:07:10.491Z,5.7
2022-12-29T01:09:57.813Z,5.7
2022-12-29T01:13:00.993Z,5.8
2022-12-29T01:15:48.410Z,5.8
2022-12-29T01:18:36.703Z,5.8
2022-12-29T01:21:24.130Z,5.8
2022-12-29T01:24:11.725Z,5.9
2022-12-29T01:27:00.002Z,5.9
2022-12-29T01:29:47.400Z,5.9
2022-12-29T01:32:34.995Z,6
2022-12-29T01:35:22.284Z,6
2022-12-29T01:38:09.667Z,6
2022-12-29T01:40:57.010Z,6
2022-12-29T01:43:44.540Z,6
2022-12-29T01:46:34.198Z,6.1
2022-12-29T01:49:24.877Z,6.1
2022-12-29T01:52:14.901Z,6.1
2022-12-29T01:55:02.301Z,6.1
2022-12-29T01:57:52.439Z,6.2
2022-12-29T02:00:42.097Z,6.2
2022-12-29T02:03:29.539Z,6.2
2022-12-29T02:06:18.227Z,6.3
2022-12-29T02:09:09.294Z,6.3
2022-12-29T02:11:56.504Z,6.3
2022-12-29T02:14:45.545Z,6.3
2022-12-29T02:17:36.045Z,6.3
2022-12-29T02:20:39.493Z,6.2
2022-12-29T02:24:08.591Z,6.2
2022-12-29T02:27:20.387Z,6.1
2022-12-29T02:30:46.171Z,6.1
2022-12-29T02:33:43.258Z,6
2022-12-29T02:36:43.410Z,6
2022-12-29T02:39:42.020Z,6
2022-12-29T02:42:36.912Z,5.9
2022-12-29T02:45:33.145Z,5.9
2022-12-29T02:48:25.582Z,5.9
2022-12-29T02:51:18.481Z,5.8
2022-12-29T02:54:11.761Z,5.8
2022-12-29T02:57:31.310Z,5.7
2022-12-29T03:00:20.832Z,5.7
2022-12-29T03:03:08.176Z,5.7
2022-12-29T03:06:11.262Z,5.7
2022-12-29T03:09:18.791Z,5.7
2022-12-29T03:12:17.216Z,5.6
2022-12-29T03:15:47.583Z,5.6
2022-12-29T03:18:49.159Z,5.6
2022-12-29T03:21:46.071Z,5.6
2022-12-29T03:25:12.769Z,5.6
2022-12-29T03:28:05.357Z,5.6
2022-12-29T03:30:56.726Z,5.6
2022-12-29T03:33:45.719Z,5.6
2022-12-29T03:36:34.873Z,5.6
2022-12-29T03:39:28.458Z,5.6
2022-12-29T03:42:15.903Z,5.6
2022-12-29T03:45:07.432Z,5.6
2022-12-29T03:47:56.202Z,5.6
2022-12-29T03:50:43.522Z,5.5
2022-12-29T03:53:30.844Z,5.5
2022-12-29T03:56:18.252Z,5.5
2022-12-29T03:59:05.675Z,5.5
2022-12-29T04:01:52.968Z,5.5
2022-12-29T04:04:40.635Z,5.6
2022-12-29T04:07:27.898Z,5.6
2022-12-29T04:10:15.199Z,5.6
2022-12-29T04:13:02.675Z,5.6
2022-12-29T04:15:50.141Z,5.6
2022-12-29T04:18:37.476Z,5.6
2022-12-29T04:21:24.898Z,5.6
2022-12-29T04:24:12.139Z,5.7
2022-12-29T04:26:59.566Z,5.7
2022-12-29T04:29:47.487Z,5.7
2022-12-29T04:32:35.174Z,5.7
2022-12-29T04:35:22.543Z,5.7
2022-12-29T04:38:09.843Z,5.7
2022-12-29T04:40:57.625Z,5.8
2022-12-29T04:43:46.282Z,5.8
2022-12-29T04:46:34.335Z,5.8
2022-12-29T04:49:21.681Z,5.8
2022-12-29T04:52:09.723Z,5.8
2022-12-29T04:54:56.912Z,5.9
2022-12-29T04:57:44.184Z,5.8
2022-12-29T05:00:31.952Z,5.9
2022-12-29T05:03:19.655Z,5.9
2022-12-29T05:06:07.246Z,5.9
2022-12-29T05:08:54.739Z,5.9
2022-12-29T05:11:42.061Z,5.9
2022-12-29T05:14:29.391Z,5.8
2022-12-29T05:17:17.642Z,5.8
2022-12-29T05:20:05.984Z,5.8
2022-12-29T05:22:54.883Z,5.8
2022-12-29T05:25:42.241Z,5.8
2022-12-29T05:28:30.830Z,5.8
2022-12-29T05:31:18.827Z,5.7
2022-12-29T05:34:06.279Z,5.7
2022-12-29T05:36:55.023Z,5.7
2022-12-29T05:39:42.391Z,5.7
2022-12-29T05:42:29.723Z,5.8
2022-12-29T05:45:17.001Z,5.8
2022-12-29T05:48:05.812Z,5.8
2022-12-29T05:50:53.221Z,5.8
2022-12-29T05:53:40.544Z,5.9
2022-12-29T05:56:27.794Z,5.9
2022-12-29T05:59:15.148Z,5.9
2022-12-29T06:02:02.818Z,6
2022-12-29T06:04:50.201Z,6
2022-12-29T06:07:37.621Z,6
2022-12-29T06:10:25.050Z,6.1
2022-12-29T06:13:12.958Z,6.1
2022-12-29T06:16:00.280Z,6.1
2022-12-29T06:18:48.325Z,6.1
2022-12-29T06:21:35.603Z,6.2
2022-12-29T06:24:23.323Z,6.2
2022-12-29T06:27:10.610Z,6.2
2022-12-29T06:29:59.450Z,6.2
2022-12-29T06:32:47.946Z,6.2
2022-12-29T06:35:35.512Z,6.2
2022-12-29T06:38:22.845Z,6.3
2022-12-29T06:41:10.195Z,6.3
2022-12-29T06:43:57.507Z,6.3
2022-12-29T06:46:44.802Z,6.3
2022-12-29T06:49:32.245Z,6.3
2022-12-29T06:52:19.647Z,6.3
2022-12-29T06:55:07.013Z,6.3
2022-12-29T06:57:54.926Z,6.3
2022-12-29T07:00:43.073Z,6.3
2022-12-29T07:03:30.500Z,6.4
2022-12-29T07:06:17.745Z,6.4
2022-12-29T07:09:05.234Z,6.4
2022-12-29T07:11:53.003Z,6.5
2022-12-29T07:14:43.163Z,6.5
2022-12-29T07:17:31.011Z,6.5
2022-12-29T07:20:23.185Z,6.5
2022-12-29T07:23:13.806Z,6.6
2022-12-29T07:26:01.103Z,6.6
2022-12-29T07:28:50.834Z,6.6
2022-12-29T07:31:38.294Z,6.7
2022-12-29T07:34:26.099Z,6.7
2022-12-29T07:37:13.437Z,6.7
2022-12-29T07:40:01.654Z,6.7
2022-12-29T07:42:51.358Z,6.8
2022-12-29T07:45:38.704Z,6.8
2022-12-29T07:48:26.141Z,6.8
2022-12-29T07:51:13.483Z,6.8
2022-12-29T07:54:00.820Z,6.8
2022-12-29T07:56:48.531Z,6.9
2022-12-29T07:59:36.409Z,6.9
2022-12-29T08:02:23.872Z,6.9
2022-12-29T08:05:11.896Z,6.9
2022-12-29T08:07:59.497Z,7
2022-12-29T08:10:47.278Z,7
2022-12-29T08:13:35.191Z,7
2022-12-29T08:16:22.683Z,7.1
2022-12-29T08:19:10.005Z,7.1
2022-12-29T08:21:57.882Z,7.2
2022-12-29T08:24:45.252Z,7.2
2022-12-29T08:27:32.649Z,7.3
2022-12-29T08:30:20.084Z,7.3
2022-12-29T08:33:07.546Z,7.4
2022-12-29T08:35:55.231Z,7.4
2022-12-29T08:38:46.116Z,7.5
2022-12-29T08:41:33.749Z,7.5
2022-12-29T08:44:21.060Z,7.5
2022-12-29T08:47:08.507Z,7.5
2022-12-29T08:49:57.486Z,7.5
2022-12-29T08:52:44.722Z,7.6
2022-12-29T08:55:32.044Z,7.6
2022-12-29T08:58:19.415Z,7.6
2022-12-29T09:01:06.782Z,7.6
2022-12-29T09:04:14.192Z,7.7
2022-12-29T09:07:02.641Z,7.7
2022-12-29T09:09:51.153Z,7.7
2022-12-29T09:12:38.530Z,7.7
2022-12-29T09:15:25.941Z,7.8
2022-12-29T09:18:19.035Z,7.8
2022-12-29T09:21:07.881Z,7.9
2022-12-29T09:23:57.529Z,8
2022-12-29T09:26:47.069Z,8.1
2022-12-29T09:29:35.064Z,8.2
2022-12-29T09:32:23.650Z,8.3
2022-12-29T09:35:11.949Z,8.3
2022-12-29T09:38:00.507Z,8.4
2022-12-29T09:40:48.451Z,8.4
2022-12-29T09:43:38.314Z,8.4
2022-12-29T09:46:38.568Z,8.4
2022-12-29T09:49:30.281Z,8.5
2022-12-29T09:52:26.834Z,8.6
2022-12-29T09:55:21.496Z,8.8
2022-12-29T09:58:13.733Z,8.9
2022-12-29T10:01:07.867Z,9
2022-12-29T10:04:13.003Z,9.2
2022-12-29T10:07:30.425Z,9.3
2022-12-29T10:10:28.575Z,9.5
2022-12-29T10:13:24.403Z,9.6
2022-12-29T10:16:23.397Z,9.7
2022-12-29T10:19:20.609Z,9.8
2022-12-29T10:22:22.309Z,9.8
2022-12-29T10:25:26.105Z,9.9
2022-12-29T10:28:22.884Z,9.9
2022-12-29T10:31:17.533Z,9.8
2022-12-29T10:34:08.395Z,9.7
2022-12-29T10:37:06.012Z,9.7
2022-12-29T10:40:02.281Z,9.7
2022-12-29T10:43:04.486Z,9.7
2022-12-29T10:46:06.408Z,9.7
2022-12-29T10:48:57.916Z,9.8
2022-12-29T10:51:45.334Z,9.9
2022-12-29T10:54:37.560Z,10.1
2022-12-29T10:57:31.095Z,10.2
2022-12-29T11:00:22.227Z,10.3
2022-12-29T11:03:10.459Z,10.2
2022-12-29T11:06:38.271Z,10.3
2022-12-29T11:09:36.601Z,10.4
2022-12-29T11:12:31.304Z,10.5
2022-12-29T11:15:19.481Z,10.7
2022-12-29T11:18:06.901Z,10.8
2022-12-29T11:21:06.246Z,10.9
2022-12-29T11:24:12.626Z,11
2022-12-29T11:27:07.523Z,11.1
2022-12-29T11:30:00.379Z,11
2022-12-29T11:32:49.414Z,10.9
2022-12-29T11:35:38.301Z,11
2022-12-29T11:38:29.108Z,11.1
2022-12-29T11:41:21.512Z,11.1
2022-12-29T11:44:11.585Z,11.2
2022-12-29T11:46:59.595Z,11.3
2022-12-29T11:49:47.030Z,11.3
2022-12-29T11:52:36.897Z,11.3
2022-12-29T11:55:25.107Z,11.3
2022-12-29T11:58:13.797Z,11.2
2022-12-29T12:01:02.646Z,11.2
2022-12-29T12:03:53.785Z,11.2
2022-12-29T12:06:47.362Z,11.1
2022-12-29T12:09:44.282Z,11.1
2022-12-29T12:12:36.657Z,11.1
2022-12-29T12:15:30.726Z,11.1
2022-12-29T12:18:23.398Z,11.1
2022-12-29T12:21:23.291Z,11.1
2022-12-29T12:24:18.249Z,11.1
2022-12-29T12:27:21.620Z,11.1
2022-12-29T12:30:12.971Z,11.1
2022-12-29T12:33:03.035Z,11.1
2022-12-29T12:35:58.378Z,11.1
2022-12-29T12:39:08.187Z,11.1
2022-12-29T12:42:04.992Z,11.1
2022-12-29T12:45:08.026Z,11.1
2022-12-29T12:48:17.284Z,11
2022-12-29T12:51:22.256Z,11
2022-12-29T12:54:20.495Z,11
2022-12-29T12:57:20.569Z,11
2022-12-29T13:00:18.276Z,11
2022-12-29T13:03:09.180Z,11.1
2022-12-29T13:06:05.007Z,11.1
2022-12-29T13:09:12.824Z,11.1
2022-12-29T13:12:15.437Z,11.1
2022-12-29T13:15:15.164Z,11.1
2022-12-29T13:18:16.587Z,11.1
2022-12-29T13:21:11.844Z,11.1
2022-12-29T13:24:10.900Z,11.1
2022-12-29T13:27:05.555Z,11.1
2022-12-29T13:30:01.551Z,11.2
2022-12-29T13:32:54.683Z,11.1
2022-12-29T13:35:51.518Z,11
2022-12-29T13:38:46.033Z,10.9
2022-12-29T13:41:37.522Z,10.9
2022-12-29T13:44:36.108Z,10.8
2022-12-29T13:47:29.883Z,10.8
2022-12-29T13:50:20.375Z,10.7
2022-12-29T13:53:11.827Z,10.6
2022-12-29T13:56:13.249Z,10.6
2022-12-29T13:59:06.903Z,10.5
2022-12-29T14:02:03.958Z,10.5
2022-12-29T14:05:03.483Z,10.5
2022-12-29T14:08:15.850Z,10.5
2022-12-29T14:11:04.497Z,10.4
2022-12-29T14:13:56.033Z,10.3
2022-12-29T14:16:44.083Z,10.3
2022-12-29T14:19:32.269Z,10.2
2022-12-29T14:22:32.735Z,10.2
2022-12-29T14:25:20.756Z,10.2
2022-12-29T14:28:42.005Z,10.1
2022-12-29T14:31:31.637Z,10.1
2022-12-29T14:34:26.261Z,10.1
2022-12-29T14:37:16.053Z,10.1
2022-12-29T14:40:12.928Z,10.1
2022-12-29T14:43:05.222Z,10.1
2022-12-29T14:46:00.663Z,10.1
2022-12-29T14:48:49.034Z,10.1
2022-12-29T14:51:43.865Z,10.1
2022-12-29T14:54:32.941Z,10
2022-12-29T14:57:31.960Z,10
2022-12-29T15:00:23.590Z,9.9
2022-12-29T15:03:15.699Z,9.9
2022-12-29T15:06:10.002Z,9.9
2022-12-29T15:09:04.290Z,9.9
2022-12-29T15:12:06.009Z,9.8
2022-12-29T15:15:07.454Z,9.8
2022-12-29T15:18:07.236Z,9.8
2022-12-29T15:21:07.616Z,9.8
2022-12-29T15:24:00.776Z,9.8
2022-12-29T15:26:49.576Z,9.8
2022-12-29T15:29:40.298Z,9.8
2022-12-29T15:32:30.003Z,9.8
2022-12-29T15:35:26.290Z,9.8
2022-12-29T15:38:18.245Z,9.7
2022-12-29T15:41:09.797Z,9.7
2022-12-29T15:44:10.775Z,9.7
2022-12-29T15:47:06.319Z,9.7
2022-12-29T15:50:09.074Z,9.7
2022-12-29T15:53:07.937Z,9.7
2022-12-29T15:56:03.193Z,9.7
2022-12-29T15:58:55.562Z,9.7
2022-12-29T16:01:43.474Z,9.7
2022-12-29T16:04:31.271Z,9.7
2022-12-29T16:07:18.760Z,9.7
2022-12-29T16:10:13.766Z,9.7
2022-12-29T16:13:11.505Z,9.6
2022-12-29T16:16:04.980Z,9.6
2022-12-29T16:18:58.426Z,9.5
2022-12-29T16:21:49.698Z,9.5
2022-12-29T16:24:37.513Z,9.5
2022-12-29T16:27:26.080Z,9.5
2022-12-29T16:30:19.931Z,9.5
2022-12-29T16:33:09.778Z,9.5
2022-12-29T16:36:23.507Z,9.5
2022-12-29T16:39:14.356Z,9.5
2022-12-29T16:42:07.649Z,9.4
2022-12-29T16:45:32.045Z,9.5
2022-12-29T16:49:12.277Z,9.4
2022-12-29T16:52:03.535Z,9.4
2022-12-29T16:54:59.497Z,9.4
2022-12-29T16:57:47.301Z,9.4
2022-12-29T17:00:39.056Z,9.4
2022-12-29T17:03:26.537Z,9.4
2022-12-29T17:06:18.987Z,9.3
2022-12-29T17:09:08.380Z,9.3
2022-12-29T17:12:11.090Z,9.3
2022-12-29T17:15:03.150Z,9.3
2022-12-29T17:17:57.923Z,9.3
2022-12-29T17:20:46.059Z,9.3
2022-12-29T17:23:33.495Z,9.3
2022-12-29T17:26:21.564Z,9.2
2022-12-29T17:29:08.787Z,9.2
2022-12-29T17:32:04.715Z,9.2
2022-12-29T17:34:57.747Z,9.2
2022-12-29T17:37:45.423Z,9.2
2022-12-29T17:40:34.032Z,9.2
2022-12-29T17:43:21.806Z,9.2
2022-12-29T17:46:09.871Z,9.2
2022-12-29T17:48:57.787Z,9.2
2022-12-29T17:51:45.290Z,9.2
2022-12-29T17:54:32.934Z,9.2
2022-12-29T17:57:20.502Z,9.1
2022-12-29T18:00:07.952Z,9.1
2022-12-29T18:03:00.662Z,9.1
2022-12-29T18:05:49.129Z,9.1
2022-12-29T18:08:36.423Z,9.1
2022-12-29T18:11:25.828Z,9.1
2022-12-29T18:14:13.436Z,9.1
2022-12-29T18:17:02.184Z,9
2022-12-29T18:19:57.078Z,9
2022-12-29T18:22:44.646Z,9
2022-12-29T18:25:31.993Z,9
2022-12-29T18:28:27.288Z,9
2022-12-29T18:31:15.379Z,9
2022-12-29T18:34:06.187Z,9
2022-12-29T18:37:00.613Z,8.9
2022-12-29T18:39:48.412Z,8.7
2022-12-29T18:42:35.992Z,8.9
2022-12-29T18:45:23.242Z,8.8
2022-12-29T18:48:10.872Z,8.8
2022-12-29T18:50:58.594Z,8.7
2022-12-29T18:53:45.799Z,8.7
2022-12-29T18:56:33.658Z,8.7
2022-12-29T18:59:20.986Z,8.7
2022-12-29T19:02:09.346Z,8.7
2022-12-29T19:05:07.101Z,8.7
2022-12-29T19:08:08.029Z,8.6
2022-12-29T19:10:56.854Z,8.6
2022-12-29T19:13:45.167Z,8.6
2022-12-29T19:16:32.489Z,8.6
2022-12-29T19:19:19.993Z,8.6
2022-12-29T19:22:07.335Z,8.5
2022-12-29T19:24:59.917Z,8.5
2022-12-29T19:27:47.900Z,8.5
2022-12-29T19:30:36.074Z,8.4
2022-12-29T19:33:24.223Z,8.4
2022-12-29T19:36:12.734Z,8.3
2022-12-29T19:39:01.480Z,8.3
2022-12-29T19:41:49.246Z,8.3
2022-12-29T19:44:36.570Z,8.2
2022-12-29T19:47:30.052Z,8.2
2022-12-29T19:50:19.669Z,8.2
2022-12-29T19:53:07.293Z,8.1
2022-12-29T19:55:55.110Z,8.1
2022-12-29T19:58:46.851Z,8.1
2022-12-29T20:01:36.135Z,8.1
2022-12-29T20:04:23.587Z,8.1
2022-12-29T20:07:17.269Z,8.1
2022-12-29T20:10:06.704Z,8
2022-12-29T20:12:54.757Z,8.1
2022-12-29T20:15:42.024Z,8
2022-12-29T20:18:29.637Z,8
2022-12-29T20:21:17.464Z,8
2022-12-29T20:24:06.641Z,8
2022-12-29T20:26:54.164Z,8
2022-12-29T20:29:41.860Z,8
2022-12-29T20:32:29.397Z,8
2022-12-29T20:35:20.239Z,8
2022-12-29T20:38:07.689Z,8
2022-12-29T20:40:55.114Z,7.9
2022-12-29T20:43:42.463Z,7.9
2022-12-29T20:46:35.321Z,7.9
2022-12-29T20:49:26.897Z,7.9
2022-12-29T20:52:14.661Z,7.8
2022-12-29T20:55:02.533Z,7.8
2022-12-29T20:58:22.548Z,7.8
2022-12-29T21:01:10.382Z,7.7
2022-12-29T21:04:00.158Z,7.7
2022-12-29T21:06:48.548Z,7.7
2022-12-29T21:09:36.188Z,7.7
2022-12-29T21:12:23.596Z,7.7
2022-12-29T21:15:10.837Z,7.7
2022-12-29T21:17:59.979Z,7.7
2022-12-29T21:20:47.331Z,7.7
2022-12-29T21:23:41.259Z,7.7
2022-12-29T21:26:28.485Z,7.7
2022-12-29T21:29:16.512Z,7.7
2022-12-29T21:32:06.011Z,7.7
2022-12-29T21:34:54.299Z,7.7
2022-12-29T21:37:41.593Z,7.7
2022-12-29T21:40:28.937Z,7.8
2022-12-29T21:43:16.776Z,7.8
2022-12-29T21:46:04.149Z,7.8
2022-12-29T21:48:51.711Z,7.8
2022-12-29T21:51:39.075Z,7.9
2022-12-29T21:54:42.192Z,7.9
2022-12-29T21:57:45.802Z,7.9
2022-12-29T22:01:05.002Z,8
2022-12-29T22:04:28.533Z,8
2022-12-29T22:07:47.535Z,8
2022-12-29T22:11:07.295Z,8
2022-12-29T22:14:26.336Z,8
2022-12-29T22:17:14.423Z,8
2022-12-29T22:20:02.350Z,8.1
2022-12-29T22:22:51.767Z,8
2022-12-29T22:25:39.375Z,8
2022-12-29T22:28:26.962Z,8.1
2022-12-29T22:31:14.286Z,8.1
2022-12-29T22:34:11.766Z,8.1
2022-12-29T22:36:59.252Z,8.1
2022-12-29T22:39:46.831Z,8
2022-12-29T22:42:35.013Z,8
2022-12-29T22:45:22.808Z,8
2022-12-29T22:48:10.134Z,8
2022-12-29T22:50:57.409Z,8
2022-12-29T22:53:44.755Z,8
2022-12-29T22:56:33.903Z,8
2022-12-29T22:59:26.500Z,8
2022-12-29T23:02:14.315Z,8
2022-12-29T23:05:04.099Z,8
2022-12-29T23:07:53.022Z,8
2022-12-29T23:10:40.269Z,8
2022-12-29T23:13:27.779Z,8
2022-12-29T23:16:15.316Z,7.9
2022-12-29T23:19:03.187Z,7.9
2022-12-29T23:21:50.723Z,7.9
2022-12-29T23:24:38.118Z,7.9
2022-12-29T23:27:25.711Z,7.9
2022-12-29T23:30:13.007Z,7.9
2022-12-29T23:33:00.381Z,7.8
2022-12-29T23:35:48.112Z,7.8
2022-12-29T23:38:35.968Z,7.8
2022-12-29T23:41:23.421Z,7.8
2022-12-29T23:44:11.884Z,7.8
2022-12-29T23:46:59.357Z,7.8
2022-12-29T23:49:46.994Z,7.8
2022-12-29T23:52:35.045Z,7.7
2022-12-29T23:55:22.398Z,7.7
2022-12-29T23:58:09.875Z,7.7
